Time;durP1;ratioP1;P1;durP2;ratioP2;P2;SDS_P1;SDS_P2;PMS_P1;PMS_P2;Temp;Humidity;BMP_temperature;BMP_pressure;BME280_temperature;BME280_humidity;BME280_pressure;Samples;Min_cycle;Max_cycle;Signal;HPM_P1;HPM_P2
2021/12/29 00:00:45;;;;;;;0.40;0.20;;;10.40;99.90;;;;;;5091875;28;20374;-77
2021/12/29 00:03:11;;;;;;;0.70;0.70;;;10.30;99.90;;;;;;5091142;28;20465;-76
2021/12/29 00:05:37;;;;;;;0.40;0.30;;;10.30;99.90;;;;;;5091578;28;20505;-77
2021/12/29 00:08:05;;;;;;;0.40;0.20;;;10.30;99.90;;;;;;5091062;28;20370;-77
2021/12/29 00:10:31;;;;;;;0.40;0.28;;;10.30;99.90;;;;;;5091570;28;20728;-77
2021/12/29 00:12:58;;;;;;;0.40;0.30;;;10.30;99.90;;;;;;5091569;28;20377;-77
2021/12/29 00:15:27;;;;;;;0.40;0.30;;;10.30;99.90;;;;;;5073212;28;20728;-77
2021/12/29 00:17:54;;;;;;;0.40;0.20;;;10.30;99.90;;;;;;5073135;28;20751;-78
2021/12/29 00:20:24;;;;;;;0.40;0.20;;;10.30;99.90;;;;;;5072618;28;20385;-77
2021/12/29 00:22:50;;;;;;;0.40;0.30;;;10.30;99.90;;;;;;5091514;28;20485;-76
2021/12/29 00:25:16;;;;;;;0.40;0.30;;;10.30;99.90;;;;;;5090864;28;20455;-78
2021/12/29 00:27:42;;;;;;;0.40;0.20;;;10.30;99.90;;;;;;5091650;28;20427;-76
2021/12/29 00:30:11;;;;;;;0.50;0.50;;;10.30;99.90;;;;;;5090137;28;20505;-77
2021/12/29 00:32:37;;;;;;;0.40;0.20;;;10.30;99.90;;;;;;5092165;28;20370;-77
2021/12/29 00:35:04;;;;;;;0.40;0.20;;;10.30;99.90;;;;;;5111567;28;20719;-77
2021/12/29 00:37:30;;;;;;;0.40;0.20;;;10.30;99.90;;;;;;5092460;28;20763;-76
2021/12/29 00:39:56;;;;;;;0.80;0.70;;;10.30;99.90;;;;;;5111364;28;20383;-77
2021/12/29 00:42:21;;;;;;;0.40;0.20;;;10.30;99.90;;;;;;5110860;28;20388;-77
2021/12/29 00:44:49;;;;;;;0.40;0.30;;;10.30;99.90;;;;;;5093092;28;20427;-77
2021/12/29 00:47:15;;;;;;;0.40;0.30;;;10.30;99.90;;;;;;5111366;28;20451;-77
2021/12/29 00:49:42;;;;;;;0.80;0.50;;;10.30;99.90;;;;;;5092882;28;20399;-77
2021/12/29 00:52:08;;;;;;;0.40;0.30;;;10.20;99.90;;;;;;5111455;28;20376;-76
2021/12/29 00:54:38;;;;;;;0.40;0.20;;;10.20;99.90;;;;;;5110712;28;20922;-76
2021/12/29 00:57:03;;;;;;;0.40;0.20;;;10.20;99.90;;;;;;5111304;28;20858;-76
2021/12/29 00:59:29;;;;;;;1.80;0.50;;;10.10;99.90;;;;;;5092221;28;20381;-77
2021/12/29 01:01:55;;;;;;;0.40;0.20;;;10.10;99.90;;;;;;5110777;28;20368;-77
2021/12/29 01:04:21;;;;;;;0.40;0.20;;;10.10;99.90;;;;;;5111151;28;20943;-76
2021/12/29 01:06:47;;;;;;;0.40;0.20;;;10.00;99.90;;;;;;5110501;28;20379;-76
2021/12/29 01:09:13;;;;;;;0.40;0.20;;;10.00;99.90;;;;;;5092748;28;20471;-77
2021/12/29 01:11:39;;;;;;;0.40;0.20;;;10.10;99.90;;;;;;5110368;28;20408;-78
2021/12/29 01:14:07;;;;;;;0.40;0.20;;;10.10;99.90;;;;;;5110800;28;20426;-76
2021/12/29 01:19:01;;;;;;;0.40;0.22;;;10.10;99.90;;;;;;5111079;28;20372;-77
2021/12/29 01:21:27;;;;;;;0.40;0.20;;;10.10;99.90;;;;;;5111043;28;20381;-78
2021/12/29 01:23:53;;;;;;;0.40;0.30;;;10.10;99.90;;;;;;5110078;28;20408;-77
2021/12/29 01:26:18;;;;;;;0.40;0.20;;;10.00;99.90;;;;;;5111089;28;20388;-77
2021/12/29 01:28:45;;;;;;;0.40;0.30;;;10.10;99.90;;;;;;5087843;28;20893;-78
2021/12/29 01:31:10;;;;;;;0.40;0.20;;;10.10;99.90;;;;;;5094620;28;20374;-77
2021/12/29 01:33:36;;;;;;;0.40;0.20;;;10.10;99.90;;;;;;5067372;28;20738;-74
2021/12/29 01:36:02;;;;;;;0.40;0.30;;;10.10;99.90;;;;;;5073603;28;20384;-77
2021/12/29 01:38:28;;;;;;;0.40;0.20;;;10.20;99.90;;;;;;5074248;28;20379;-74
2021/12/29 01:40:54;;;;;;;0.40;0.20;;;10.10;99.90;;;;;;5073533;28;20376;-74
2021/12/29 01:43:20;;;;;;;0.50;0.40;;;10.20;99.90;;;;;;5074101;28;20490;-76
2021/12/29 01:45:47;;;;;;;0.40;0.20;;;10.20;99.90;;;;;;5073917;28;20467;-74
2021/12/29 01:48:12;;;;;;;0.40;0.30;;;10.20;99.90;;;;;;5073143;28;20371;-74
2021/12/29 01:50:40;;;;;;;0.40;0.30;;;10.20;99.90;;;;;;5073895;28;20391;-74
2021/12/29 01:53:12;;;;;;;0.40;0.20;;;10.20;99.90;;;;;;5073110;28;20865;-74
2021/12/29 01:55:39;;;;;;;0.40;0.30;;;10.30;99.90;;;;;;5055919;28;20475;-74
2021/12/29 01:58:06;;;;;;;0.40;0.20;;;10.20;99.90;;;;;;5073284;28;20472;-74
2021/12/29 02:00:35;;;;;;;0.40;0.20;;;10.20;99.90;;;;;;5073637;28;20387;-75
2021/12/29 02:03:01;;;;;;;0.40;0.30;;;10.30;99.90;;;;;;5073403;28;20454;-74
2021/12/29 02:05:27;;;;;;;0.40;0.30;;;10.30;99.90;;;;;;5072931;28;20507;-75
2021/12/29 02:07:53;;;;;;;0.40;0.30;;;10.30;99.90;;;;;;5073932;28;20734;-74
2021/12/29 02:10:20;;;;;;;0.40;0.20;;;10.30;99.90;;;;;;5055030;28;20483;-74
2021/12/29 02:12:46;;;;;;;0.40;0.20;;;10.30;99.90;;;;;;5055517;28;20446;-74
2021/12/29 02:15:12;;;;;;;0.40;0.20;;;10.30;99.90;;;;;;5073197;28;20785;-74
2021/12/29 02:17:38;;;;;;;0.40;0.20;;;10.30;99.90;;;;;;5073425;28;20442;-77
2021/12/29 02:20:06;;;;;;;0.40;0.30;;;10.30;99.90;;;;;;5073525;28;20380;-74
2021/12/29 02:22:43;;;;;;;0.40;0.20;;;10.30;99.90;;;;;;5072804;28;20450;-74
2021/12/29 02:27:42;;;;;;;0.40;0.20;;;10.30;99.90;;;;;;5073356;28;20395;-74
2021/12/29 02:30:09;;;;;;;0.40;0.20;;;10.30;99.90;;;;;;5090246;28;20394;-74
2021/12/29 02:32:35;;;;;;;0.40;0.20;;;10.30;99.90;;;;;;5092925;28;20386;-75
2021/12/29 02:35:00;;;;;;;0.40;0.20;;;10.30;99.90;;;;;;5095577;28;20889;-74
2021/12/29 02:37:27;;;;;;;0.40;0.20;;;10.30;99.90;;;;;;5112834;28;20381;-73
2021/12/29 02:39:53;;;;;;;0.40;0.30;;;10.30;99.90;;;;;;5113668;28;20376;-74
2021/12/29 02:42:22;;;;;;;0.40;0.20;;;10.30;99.90;;;;;;5113695;28;20899;-74
2021/12/29 02:44:49;;;;;;;1.30;0.80;;;10.30;99.90;;;;;;5113000;28;20407;-74
2021/12/29 02:47:15;;;;;;;0.40;0.20;;;10.30;99.90;;;;;;5113473;28;20380;-74
2021/12/29 02:49:41;;;;;;;0.40;0.30;;;10.30;99.90;;;;;;5113174;28;20390;-74
2021/12/29 02:52:08;;;;;;;0.40;0.20;;;10.20;99.90;;;;;;5113458;28;20834;-75
2021/12/29 02:54:35;;;;;;;0.40;0.20;;;10.30;99.90;;;;;;5112548;28;20423;-78
2021/12/29 02:57:00;;;;;;;0.40;0.20;;;10.40;99.90;;;;;;5113096;28;20463;-77
2021/12/29 02:59:26;;;;;;;0.40;0.20;;;10.30;99.90;;;;;;5113475;28;20711;-77
2021/12/29 03:01:52;;;;;;;1.80;0.60;;;10.20;99.90;;;;;;5112606;28;20423;-77
2021/12/29 03:04:18;;;;;;;0.40;0.20;;;10.20;99.90;;;;;;5113251;28;20432;-76
2021/12/29 03:06:43;;;;;;;0.40;0.20;;;10.30;99.90;;;;;;5112509;28;20774;-77
2021/12/29 03:09:13;;;;;;;0.40;0.40;;;10.20;99.90;;;;;;5112836;28;20381;-77
2021/12/29 03:11:40;;;;;;;0.40;0.20;;;10.30;99.90;;;;;;5094772;28;20739;-77
2021/12/29 03:14:06;;;;;;;0.40;0.20;;;10.30;99.90;;;;;;5112491;28;20441;-77
2021/12/29 03:16:33;;;;;;;0.40;0.20;;;10.20;99.90;;;;;;5112653;28;20480;-76
2021/12/29 03:19:02;;;;;;;0.40;0.20;;;10.20;99.90;;;;;;5112579;28;20417;-77
2021/12/29 03:21:28;;;;;;;0.40;0.20;;;10.20;99.90;;;;;;5112903;28;20380;-77
2021/12/29 03:23:54;;;;;;;0.40;0.20;;;10.20;99.90;;;;;;5112237;28;20519;-74
2021/12/29 03:26:20;;;;;;;0.40;0.20;;;10.20;99.90;;;;;;5113251;28;20396;-76
2021/12/29 03:28:46;;;;;;;0.40;0.20;;;10.20;99.90;;;;;;5112865;28;20816;-76
2021/12/29 03:31:14;;;;;;;0.40;0.20;;;10.20;99.90;;;;;;5112192;28;20368;-77
2021/12/29 03:33:42;;;;;;;0.40;0.20;;;10.20;99.90;;;;;;5102717;28;20927;-76
2021/12/29 03:36:09;;;;;;;0.40;0.20;;;10.20;99.90;;;;;;5091696;28;20856;-76
2021/12/29 03:38:37;;;;;;;0.40;0.20;;;10.10;99.90;;;;;;5092096;28;20767;-76
2021/12/29 03:41:06;;;;;;;0.40;0.20;;;10.10;99.90;;;;;;5091357;28;20771;-77
2021/12/29 03:43:33;;;;;;;0.40;0.30;;;10.10;99.90;;;;;;5092418;28;20381;-77
2021/12/29 03:46:01;;;;;;;0.40;0.20;;;10.10;99.90;;;;;;5092022;28;20425;-75
2021/12/29 03:48:27;;;;;;;0.40;0.20;;;10.10;99.90;;;;;;5091080;28;20379;-76
2021/12/29 03:50:57;;;;;;;0.40;0.20;;;10.10;99.90;;;;;;5091434;28;20390;-76
2021/12/29 03:53:23;;;;;;;0.40;0.20;;;10.10;99.90;;;;;;5091291;28;20388;-76
2021/12/29 03:55:50;;;;;;;0.40;0.20;;;10.10;99.90;;;;;;5091951;28;20670;-76
2021/12/29 03:58:21;;;;;;;0.40;0.30;;;10.10;99.90;;;;;;5091477;28;20745;-76
2021/12/29 04:00:49;;;;;;;0.40;0.20;;;10.10;99.90;;;;;;5091934;28;20370;-76
2021/12/29 04:03:15;;;;;;;0.40;0.20;;;10.10;99.90;;;;;;5091133;28;20385;-76
2021/12/29 04:05:41;;;;;;;0.40;0.20;;;10.10;99.90;;;;;;5091870;28;20398;-77
2021/12/29 04:08:07;;;;;;;0.40;0.20;;;10.10;99.90;;;;;;5091427;28;20461;-76
2021/12/29 04:10:33;;;;;;;0.40;0.20;;;10.10;99.90;;;;;;5090890;28;20373;-76
2021/12/29 04:12:59;;;;;;;0.40;0.20;;;10.10;99.90;;;;;;5091741;28;20900;-76
2021/12/29 04:15:27;;;;;;;0.40;0.20;;;10.00;99.90;;;;;;5091097;28;20417;-77
2021/12/29 04:17:58;;;;;;;0.40;0.20;;;10.10;99.90;;;;;;5091558;28;20389;-75
2021/12/29 04:23:14;;;;;;;0.40;0.20;;;10.10;99.90;;;;;;5091166;28;20378;-76
2021/12/29 04:25:41;;;;;;;0.40;0.20;;;10.10;99.90;;;;;;5090895;28;20436;-77
2021/12/29 04:28:14;;;;;;;0.40;0.20;;;10.10;99.90;;;;;;5091512;28;20458;-76
2021/12/29 04:30:40;;;;;;;0.40;0.20;;;10.10;99.90;;;;;;5090965;28;20382;-76
2021/12/29 04:33:05;;;;;;;0.40;0.20;;;10.10;99.90;;;;;;5096194;28;20369;-76
2021/12/29 04:35:31;;;;;;;0.40;0.20;;;10.00;99.90;;;;;;5112101;28;20562;-75
2021/12/29 04:37:57;;;;;;;0.40;0.20;;;10.00;99.90;;;;;;5111282;28;20380;-77
2021/12/29 04:40:23;;;;;;;0.40;0.20;;;10.00;99.90;;;;;;5093646;28;20396;-75
2021/12/29 04:42:49;;;;;;;0.80;0.80;;;10.00;99.90;;;;;;5111272;28;20850;-77
2021/12/29 04:45:15;;;;;;;2.70;0.60;;;10.00;99.90;;;;;;5111443;28;20878;-76
2021/12/29 04:47:44;;;;;;;0.40;0.20;;;10.00;99.90;;;;;;5092829;28;20430;-76
2021/12/29 04:50:50;;;;;;;0.40;0.20;;;10.00;99.90;;;;;;5111759;28;20399;-76
2021/12/29 04:53:06;;;;;;;0.40;0.30;;;10.00;99.90;;;;;;5106417;28;20472;-76
2021/12/29 04:55:34;;;;;;;0.40;0.20;;;10.00;99.90;;;;;;5111714;28;20416;-75
2021/12/29 04:58:01;;;;;;;0.60;0.50;;;10.00;99.90;;;;;;5111020;28;20373;-74
2021/12/29 05:00:28;;;;;;;0.40;0.20;;;10.00;99.90;;;;;;5111681;28;20399;-75
2021/12/29 05:02:56;;;;;;;0.40;0.20;;;10.00;99.90;;;;;;5109981;28;20404;-75
2021/12/29 05:10:38;;;;;;;0.40;0.20;;;10.00;99.90;;;;;;5111689;28;20394;-75
2021/12/29 05:13:04;;;;;;;0.40;0.30;;;10.00;99.90;;;;;;5110852;28;20373;-75
2021/12/29 05:15:30;;;;;;;0.40;0.30;;;10.00;99.90;;;;;;5111858;28;20379;-75
2021/12/29 05:17:58;;;;;;;0.40;0.30;;;10.00;99.90;;;;;;5111372;28;20475;-74
2021/12/29 05:20:26;;;;;;;0.40;0.20;;;10.00;99.90;;;;;;5111479;28;20461;-75
2021/12/29 05:22:52;;;;;;;0.40;0.40;;;9.90;99.90;;;;;;5111344;28;20379;-75
2021/12/29 05:25:17;;;;;;;0.40;0.20;;;9.90;99.90;;;;;;5111038;28;20404;-75
2021/12/29 05:27:43;;;;;;;0.40;0.27;;;10.00;99.90;;;;;;5111302;28;20390;-74
2021/12/29 05:30:09;;;;;;;0.40;0.20;;;10.00;99.90;;;;;;5111007;28;20488;-75
2021/12/29 05:32:35;;;;;;;0.40;0.30;;;10.00;99.90;;;;;;5110742;28;20411;-74
2021/12/29 05:35:00;;;;;;;0.40;0.20;;;9.90;99.90;;;;;;5090659;28;20413;-75
2021/12/29 05:37:26;;;;;;;0.40;0.20;;;9.90;99.90;;;;;;5090052;28;20389;-75
2021/12/29 05:39:52;;;;;;;0.40;0.20;;;10.00;99.90;;;;;;5090619;28;20471;-75
2021/12/29 05:42:17;;;;;;;0.77;0.67;;;10.00;99.90;;;;;;5090281;28;20411;-75
2021/12/29 05:44:43;;;;;;;0.40;0.20;;;9.90;99.90;;;;;;5090571;28;20921;-75
2021/12/29 05:47:09;;;;;;;0.40;0.20;;;10.00;99.90;;;;;;5090914;28;20378;-78
2021/12/29 05:49:34;;;;;;;0.70;0.70;;;10.00;99.90;;;;;;5072005;28;20378;-75
2021/12/29 05:52:00;;;;;;;0.40;0.20;;;10.00;99.90;;;;;;5090940;28;20378;-75
2021/12/29 05:54:27;;;;;;;0.40;0.30;;;10.00;99.90;;;;;;5089809;28;20430;-76
2021/12/29 05:56:53;;;;;;;0.40;0.30;;;10.00;99.90;;;;;;5090875;28;20398;-75
2021/12/29 05:59:19;;;;;;;0.40;0.30;;;10.10;99.90;;;;;;5090686;28;20653;-75
2021/12/29 06:01:44;;;;;;;0.40;0.20;;;10.10;99.90;;;;;;5090646;28;20382;-75
2021/12/29 06:04:11;;;;;;;0.80;0.70;;;10.00;99.90;;;;;;5072449;28;20413;-75
2021/12/29 06:06:36;;;;;;;0.40;0.30;;;10.00;99.90;;;;;;5090110;28;20437;-74
2021/12/29 06:09:02;;;;;;;0.40;0.30;;;10.00;99.90;;;;;;5090621;28;20458;-74
2021/12/29 06:11:28;;;;;;;0.40;0.20;;;10.00;99.90;;;;;;5071656;28;20416;-75
2021/12/29 06:13:54;;;;;;;0.40;0.30;;;10.10;99.90;;;;;;5090514;28;20410;-75
2021/12/29 06:16:19;;;;;;;0.40;0.30;;;10.10;99.90;;;;;;5094176;28;20390;-74
2021/12/29 06:18:45;;;;;;;0.40;0.20;;;10.10;99.90;;;;;;5093255;28;20384;-74
2021/12/29 06:21:16;;;;;;;0.40;0.23;;;10.10;99.90;;;;;;5094158;28;20447;-74
2021/12/29 06:23:44;;;;;;;0.80;0.70;;;10.10;99.90;;;;;;5093497;28;20430;-75
2021/12/29 06:26:09;;;;;;;0.50;0.45;;;10.10;99.90;;;;;;5093779;28;20459;-75
2021/12/29 06:28:35;;;;;;;0.40;0.30;;;10.10;99.90;;;;;;5093462;28;20394;-76
2021/12/29 06:31:01;;;;;;;0.40;0.20;;;10.10;99.90;;;;;;5093968;28;20382;-74
2021/12/29 06:33:26;;;;;;;0.40;0.30;;;10.00;99.90;;;;;;5101414;28;20412;-74
2021/12/29 06:35:52;;;;;;;0.40;0.30;;;10.10;99.90;;;;;;5113699;28;20419;-76
2021/12/29 06:38:17;;;;;;;0.40;0.30;;;10.10;99.90;;;;;;5114237;28;20392;-75
2021/12/29 06:40:43;;;;;;;0.40;0.30;;;10.00;99.90;;;;;;5113430;28;20459;-75
2021/12/29 06:43:09;;;;;;;0.40;0.20;;;10.00;99.90;;;;;;5114209;28;20373;-75
2021/12/29 06:45:34;;;;;;;0.50;0.50;;;10.00;99.90;;;;;;5113602;28;20401;-74
2021/12/29 06:48:00;;;;;;;0.40;0.30;;;10.00;99.90;;;;;;5113449;28;20746;-75
2021/12/29 06:50:26;;;;;;;0.40;0.20;;;10.00;99.90;;;;;;5113903;28;20846;-74
2021/12/29 06:52:52;;;;;;;0.40;0.30;;;10.10;99.90;;;;;;5113376;28;20873;-75
2021/12/29 06:55:17;;;;;;;0.40;0.30;;;10.10;99.90;;;;;;5114034;28;20468;-74
2021/12/29 06:57:43;;;;;;;0.40;0.20;;;10.10;99.90;;;;;;5095700;28;20788;-75
2021/12/29 07:00:09;;;;;;;0.40;0.20;;;10.00;99.90;;;;;;5094824;28;20388;-75
2021/12/29 07:02:35;;;;;;;0.40;0.20;;;10.10;99.90;;;;;;5113720;28;20380;-76
2021/12/29 07:05:01;;;;;;;0.40;0.20;;;10.10;99.90;;;;;;5112921;28;20469;-75
2021/12/29 07:07:26;;;;;;;0.40;0.20;;;10.10;99.90;;;;;;5113809;28;20398;-74
2021/12/29 07:09:52;;;;;;;0.80;0.40;;;10.10;99.90;;;;;;5113475;28;20817;-74
2021/12/29 07:12:19;;;;;;;0.40;0.20;;;10.10;99.90;;;;;;5112655;28;20384;-75
2021/12/29 07:14:45;;;;;;;0.40;0.20;;;10.10;99.90;;;;;;5113369;28;20847;-75
2021/12/29 07:17:11;;;;;;;0.40;0.30;;;10.20;99.90;;;;;;5112636;28;20396;-75
2021/12/29 07:19:37;;;;;;;0.40;0.30;;;10.20;99.90;;;;;;5113322;28;20360;-75
2021/12/29 07:22:04;;;;;;;0.40;0.30;;;10.20;99.90;;;;;;5112783;28;20592;-76
2021/12/29 07:24:31;;;;;;;0.40;0.30;;;10.20;99.90;;;;;;5112833;28;20507;-76
2021/12/29 07:26:56;;;;;;;0.40;0.30;;;10.20;99.90;;;;;;5112308;28;20912;-75
2021/12/29 07:29:22;;;;;;;0.40;0.20;;;10.20;99.90;;;;;;5112485;28;20404;-77
2021/12/29 07:31:48;;;;;;;0.40;0.20;;;10.30;99.90;;;;;;5112780;28;20376;-76
2021/12/29 07:34:14;;;;;;;0.40;0.20;;;10.30;99.90;;;;;;5112735;28;20389;-77
2021/12/29 07:36:40;;;;;;;0.40;0.30;;;10.20;99.90;;;;;;5113094;28;20376;-77
2021/12/29 07:39:09;;;;;;;0.40;0.30;;;10.30;99.90;;;;;;5112621;28;20936;-76
2021/12/29 07:41:36;;;;;;;1.80;0.50;;;10.30;99.90;;;;;;5094025;28;20416;-76
2021/12/29 07:44:04;;;;;;;0.40;0.30;;;10.30;99.90;;;;;;5112833;28;20389;-76
2021/12/29 07:46:33;;;;;;;0.40;0.30;;;10.40;99.90;;;;;;5112296;28;20419;-76
2021/12/29 07:48:59;;;;;;;0.40;0.20;;;10.40;99.90;;;;;;5094089;28;20389;-76
2021/12/29 07:51:26;;;;;;;0.40;0.30;;;10.40;99.90;;;;;;5093778;28;20389;-77
2021/12/29 07:53:51;;;;;;;0.40;0.20;;;10.40;99.90;;;;;;5112612;28;20483;-76
2021/12/29 07:56:17;;;;;;;0.40;0.30;;;10.40;99.90;;;;;;5094345;28;20787;-77
2021/12/29 07:58:43;;;;;;;0.65;0.65;;;10.40;99.90;;;;;;5112045;28;20691;-76
2021/12/29 08:01:09;;;;;;;0.40;0.20;;;10.50;99.90;;;;;;5112461;28;20383;-77
2021/12/29 08:03:35;;;;;;;0.40;0.20;;;10.40;99.90;;;;;;5093629;28;20384;-76
2021/12/29 08:06:01;;;;;;;0.40;0.20;;;10.50;99.90;;;;;;5112059;28;20427;-76
2021/12/29 08:08:27;;;;;;;0.40;0.20;;;10.50;99.90;;;;;;5094191;28;20507;-74
2021/12/29 08:10:53;;;;;;;0.40;0.20;;;10.50;99.90;;;;;;5111708;28;20854;-77
2021/12/29 08:13:19;;;;;;;0.40;0.25;;;10.50;99.90;;;;;;5112530;28;20864;-77
2021/12/29 08:15:45;;;;;;;0.40;0.30;;;10.50;99.90;;;;;;5111643;28;20799;-77
2021/12/29 08:18:10;;;;;;;0.40;0.20;;;10.50;99.90;;;;;;5112619;28;20376;-77
2021/12/29 08:20:36;;;;;;;0.40;0.20;;;10.50;99.90;;;;;;5111365;28;20387;-78
2021/12/29 08:23:06;;;;;;;0.40;0.30;;;10.60;99.90;;;;;;5112398;28;20408;-77
2021/12/29 08:25:33;;;;;;;0.40;0.20;;;10.60;99.90;;;;;;5111994;28;20416;-74
2021/12/29 08:27:59;;;;;;;1.10;0.90;;;10.50;99.90;;;;;;5111525;28;20429;-74
2021/12/29 08:30:25;;;;;;;0.40;0.20;;;10.50;99.90;;;;;;5111629;28;20858;-76
2021/12/29 08:32:50;;;;;;;0.40;0.28;;;10.50;99.90;;;;;;5108486;28;20426;-77
2021/12/29 08:35:16;;;;;;;0.40;0.30;;;10.50;99.90;;;;;;5091794;28;20381;-76
2021/12/29 08:37:43;;;;;;;0.70;0.60;;;10.60;99.90;;;;;;5091366;28;20413;-75
2021/12/29 08:40:10;;;;;;;0.40;0.20;;;10.60;99.90;;;;;;5090868;28;20410;-75
2021/12/29 08:42:37;;;;;;;0.40;0.20;;;10.60;99.90;;;;;;5091609;28;20721;-75
2021/12/29 08:45:05;;;;;;;0.40;0.20;;;10.70;99.90;;;;;;5090736;28;20402;-74
2021/12/29 08:47:30;;;;;;;0.40;0.20;;;10.60;99.90;;;;;;5091462;28;20376;-75
2021/12/29 08:49:56;;;;;;;0.40;0.30;;;10.60;99.90;;;;;;5090763;28;20844;-75
2021/12/29 08:52:22;;;;;;;0.60;0.50;;;10.70;99.90;;;;;;5091357;28;20378;-75
2021/12/29 08:54:47;;;;;;;0.40;0.30;;;10.70;99.90;;;;;;5091083;28;20424;-76
2021/12/29 08:57:13;;;;;;;0.40;0.28;;;10.70;99.90;;;;;;5090634;28;20539;-76
2021/12/29 08:59:39;;;;;;;0.40;0.20;;;10.60;99.90;;;;;;5091535;28;20849;-75
2021/12/29 09:02:04;;;;;;;0.40;0.20;;;10.70;99.90;;;;;;5090251;28;20401;-76
2021/12/29 09:04:30;;;;;;;0.40;0.30;;;10.70;99.90;;;;;;5090954;28;20410;-75
2021/12/29 09:06:56;;;;;;;0.40;0.30;;;10.70;99.90;;;;;;5091251;28;20393;-75
2021/12/29 09:09:22;;;;;;;0.40;0.20;;;10.70;99.90;;;;;;5090977;28;20382;-77
2021/12/29 09:11:47;;;;;;;0.40;0.30;;;10.80;99.90;;;;;;5091509;28;20378;-76
2021/12/29 09:14:13;;;;;;;0.40;0.30;;;10.70;99.90;;;;;;5090330;28;20382;-76
2021/12/29 09:16:39;;;;;;;0.40;0.30;;;10.70;99.90;;;;;;5091163;28;20393;-75
2021/12/29 09:19:05;;;;;;;0.40;0.20;;;10.70;99.90;;;;;;5090994;28;20875;-77
2021/12/29 09:21:32;;;;;;;0.40;0.20;;;10.60;99.90;;;;;;5090197;28;20378;-76
2021/12/29 09:23:58;;;;;;;0.40;0.30;;;10.50;99.90;;;;;;5072670;28;20477;-76
2021/12/29 09:26:24;;;;;;;0.40;0.30;;;10.50;99.90;;;;;;5090504;28;20465;-76
2021/12/29 09:28:50;;;;;;;0.40;0.20;;;10.40;99.90;;;;;;5091013;28;20440;-77
2021/12/29 09:31:19;;;;;;;0.40;0.30;;;10.30;99.90;;;;;;5072300;28;20408;-78
2021/12/29 09:33:45;;;;;;;0.40;0.20;;;10.10;99.90;;;;;;5073126;28;20386;-76
2021/12/29 09:36:11;;;;;;;0.40;0.20;;;10.00;99.90;;;;;;5072923;28;20514;-76
2021/12/29 09:38:40;;;;;;;0.40;0.22;;;9.90;99.90;;;;;;5090173;28;20378;-75
2021/12/29 09:41:08;;;;;;;0.40;0.20;;;9.70;99.90;;;;;;5090916;28;20378;-75
2021/12/29 09:43:35;;;;;;;0.40;0.30;;;9.60;99.90;;;;;;5072498;28;20393;-76
2021/12/29 09:46:01;;;;;;;0.40;0.30;;;9.60;99.90;;;;;;5090679;28;20464;-76
2021/12/29 09:48:27;;;;;;;0.40;0.30;;;9.60;99.90;;;;;;5090186;28;20844;-77
2021/12/29 09:50:53;;;;;;;0.40;0.20;;;9.50;99.90;;;;;;5075518;28;20389;-77
2021/12/29 09:53:20;;;;;;;0.40;0.30;;;9.50;99.90;;;;;;5094693;28;20386;-74
2021/12/29 09:55:46;;;;;;;0.40;0.30;;;9.40;99.90;;;;;;5075689;28;20386;-75
2021/12/29 09:58:13;;;;;;;0.40;0.20;;;9.40;99.90;;;;;;5076428;28;20400;-76
2021/12/29 10:00:44;;;;;;;0.40;0.30;;;9.40;99.90;;;;;;5093955;28;20378;-76
2021/12/29 10:03:13;;;;;;;0.40;0.20;;;9.40;99.90;;;;;;5094716;28;20381;-76
2021/12/29 10:05:42;;;;;;;0.40;0.20;;;9.40;99.90;;;;;;5093966;28;20806;-77
2021/12/29 10:08:17;;;;;;;0.40;0.20;;;9.40;99.90;;;;;;5094439;28;20379;-76
2021/12/29 10:10:47;;;;;;;0.40;0.20;;;9.40;99.90;;;;;;5093842;28;20374;-76
2021/12/29 10:13:14;;;;;;;0.40;0.30;;;9.40;99.90;;;;;;5094250;28;20394;-77
2021/12/29 10:15:44;;;;;;;0.40;0.30;;;9.30;99.90;;;;;;5094093;28;20405;-77
2021/12/29 10:18:16;;;;;;;0.40;0.30;;;9.20;99.90;;;;;;5094212;28;20398;-76
2021/12/29 10:20:57;;;;;;;0.40;0.20;;;9.30;99.90;;;;;;5094379;28;20382;-77
2021/12/29 10:23:56;;;;;;;0.40;0.20;;;9.30;99.90;;;;;;5094110;28;20446;-76
2021/12/29 10:26:24;;;;;;;0.50;0.50;;;9.40;99.90;;;;;;5075832;28;20426;-77
2021/12/29 10:28:52;;;;;;;0.40;0.20;;;9.40;99.90;;;;;;5093266;28;20473;-77
2021/12/29 10:31:24;;;;;;;0.40;0.20;;;9.40;99.90;;;;;;5093879;28;20469;-76
2021/12/29 10:33:56;;;;;;;0.40;0.30;;;9.40;99.90;;;;;;5104914;28;20419;-75
2021/12/29 10:36:30;;;;;;;0.40;0.20;;;9.30;99.90;;;;;;5096001;28;20397;-75
2021/12/29 10:39:16;;;;;;;0.40;0.30;;;9.20;99.90;;;;;;5113655;28;20707;-76
2021/12/29 10:42:02;;;;;;;0.40;0.30;;;9.30;99.90;;;;;;5114410;28;20376;-75
2021/12/29 10:44:38;;;;;;;0.40;0.20;;;9.10;99.90;;;;;;5095969;28;20444;-76
2021/12/29 10:47:17;;;;;;;0.90;0.80;;;9.20;99.90;;;;;;5094784;28;20396;-76
2021/12/29 10:50:04;;;;;;;0.40;0.20;;;9.10;99.90;;;;;;5095644;28;20874;-76
2021/12/29 10:52:45;;;;;;;0.40;0.20;;;9.00;99.90;;;;;;5095794;28;20385;-76
2021/12/29 10:55:25;;;;;;;0.40;0.27;;;9.00;99.90;;;;;;5113015;28;20461;-76
2021/12/29 10:58:10;;;;;;;0.40;0.30;;;9.10;99.90;;;;;;5113756;28;20385;-76
2021/12/29 11:00:39;;;;;;;0.40;0.30;;;9.10;99.90;;;;;;5113769;28;20382;-77
2021/12/29 11:03:19;;;;;;;0.40;0.20;;;9.10;99.90;;;;;;5113641;28;20373;-74
2021/12/29 11:05:48;;;;;;;0.40;0.20;;;9.20;99.90;;;;;;5095411;28;20780;-74
2021/12/29 11:08:15;;;;;;;0.40;0.20;;;9.10;99.90;;;;;;5112958;28;20443;-75
2021/12/29 11:10:43;;;;;;;0.40;0.40;;;9.10;99.90;;;;;;5113552;28;20472;-75
2021/12/29 11:13:12;;;;;;;0.40;0.20;;;9.20;99.90;;;;;;5113375;28;20376;-75
2021/12/29 11:15:41;;;;;;;0.40;0.20;;;9.20;99.90;;;;;;5112882;28;20867;-75
2021/12/29 11:18:12;;;;;;;0.40;0.20;;;9.30;99.90;;;;;;5113352;28;20399;-75
2021/12/29 11:20:39;;;;;;;0.40;0.20;;;9.50;99.90;;;;;;5094562;28;20400;-74
2021/12/29 11:23:20;;;;;;;0.40;0.30;;;9.40;99.90;;;;;;5094885;28;20412;-75
2021/12/29 11:25:47;;;;;;;0.40;0.30;;;9.50;99.90;;;;;;5113135;28;20416;-75
2021/12/29 11:28:24;;;;;;;0.40;0.20;;;9.50;99.90;;;;;;5094521;28;20516;-75
2021/12/29 11:30:52;;;;;;;0.40;0.20;;;9.50;99.90;;;;;;5112903;28;20776;-75
2021/12/29 11:33:17;;;;;;;0.40;0.20;;;9.60;99.90;;;;;;5112950;28;20406;-75
2021/12/29 11:35:55;;;;;;;0.40;0.20;;;9.60;99.90;;;;;;5112569;28;20376;-75
2021/12/29 11:38:23;;;;;;;0.40;0.20;;;9.70;99.90;;;;;;5113060;28;20373;-75
2021/12/29 11:40:57;;;;;;;0.40;0.30;;;9.80;99.90;;;;;;5112162;28;20388;-77
2021/12/29 11:43:22;;;;;;;0.40;0.30;;;10.00;99.90;;;;;;5113013;28;20372;-77
2021/12/29 11:45:50;;;;;;;0.40;0.20;;;10.00;99.90;;;;;;5111947;28;20423;-78
2021/12/29 11:48:20;;;;;;;0.40;0.20;;;9.90;99.90;;;;;;5112440;28;20373;-77
2021/12/29 11:50:49;;;;;;;0.40;0.30;;;9.80;99.90;;;;;;5112220;28;20406;-76
2021/12/29 11:53:49;;;;;;;0.40;0.30;;;9.90;99.90;;;;;;5112575;28;20376;-76
2021/12/29 11:56:18;;;;;;;0.40;0.30;;;9.90;99.90;;;;;;5094056;28;20393;-77
2021/12/29 11:58:48;;;;;;;0.40;0.30;;;9.80;99.90;;;;;;5111662;28;20866;-77
2021/12/29 12:01:21;;;;;;;0.40;0.22;;;9.80;99.90;;;;;;5094228;28;20376;-77
2021/12/29 12:03:57;;;;;;;0.40;0.30;;;9.80;99.90;;;;;;5093637;28;20999;-77
2021/12/29 12:06:35;;;;;;;0.40;0.30;;;9.80;99.90;;;;;;5112488;28;20471;-75
2021/12/29 12:09:06;;;;;;;0.40;0.30;;;9.60;99.90;;;;;;5111827;28;20376;-77
2021/12/29 12:11:32;;;;;;;0.40;0.30;;;9.70;99.90;;;;;;5112286;28;20407;-77
2021/12/29 12:13:58;;;;;;;0.40;0.20;;;9.80;99.90;;;;;;5110941;28;20963;-78
2021/12/29 12:16:26;;;;;;;0.40;0.20;;;9.60;99.90;;;;;;5112309;28;20373;-77
2021/12/29 12:18:55;;;;;;;0.40;0.20;;;9.70;99.90;;;;;;5093331;28;20479;-77
2021/12/29 12:21:31;;;;;;;0.40;0.20;;;9.60;99.90;;;;;;5112163;28;20396;-78
2021/12/29 12:24:17;;;;;;;0.40;0.30;;;9.60;99.90;;;;;;5093098;28;20404;-77
2021/12/29 12:26:50;;;;;;;0.40;0.20;;;9.70;99.90;;;;;;5112107;28;20433;-77
2021/12/29 12:29:16;;;;;;;0.40;0.20;;;9.60;99.90;;;;;;5111300;28;20404;-77
2021/12/29 12:31:49;;;;;;;0.50;0.50;;;9.70;99.90;;;;;;5112116;28;20369;-75
2021/12/29 12:34:22;;;;;;;0.40;0.20;;;9.70;99.90;;;;;;5078666;28;20401;-77
2021/12/29 12:36:48;;;;;;;1.10;0.98;;;9.70;99.90;;;;;;5073706;28;20422;-78
2021/12/29 12:39:18;;;;;;;0.40;0.20;;;9.70;99.90;;;;;;5056047;28;20426;-75
2021/12/29 12:41:48;;;;;;;0.40;0.30;;;9.60;99.90;;;;;;5091348;28;20429;-76
2021/12/29 12:44:15;;;;;;;0.40;0.20;;;9.80;99.90;;;;;;5090783;28;20828;-76
2021/12/29 12:46:50;;;;;;;0.40;0.20;;;9.80;99.90;;;;;;5091592;28;20381;-76
2021/12/29 12:49:25;;;;;;;0.40;0.22;;;9.70;99.90;;;;;;5090762;28;20382;-77
2021/12/29 12:52:10;;;;;;;0.40;0.20;;;9.60;99.90;;;;;;5091420;28;20393;-77
2021/12/29 12:54:48;;;;;;;0.40;0.30;;;9.60;99.90;;;;;;5091351;28;20397;-77
2021/12/29 12:57:36;;;;;;;0.40;0.30;;;9.70;99.90;;;;;;5090758;28;20741;-75
2021/12/29 13:00:16;;;;;;;1.00;1.00;;;9.70;99.90;;;;;;5091269;28;20836;-77
2021/12/29 13:02:50;;;;;;;0.40;0.20;;;9.70;99.90;;;;;;5073404;28;20792;-77
2021/12/29 13:05:17;;;;;;;0.40;0.30;;;9.70;99.90;;;;;;5090741;28;20926;-78
2021/12/29 13:07:51;;;;;;;0.40;0.20;;;9.70;99.90;;;;;;5091694;28;20390;-77